createdAt,value
2018-07-20T00:01:08.072Z,17.00
2018-07-20T00:03:36.147Z,16.90
2018-07-20T00:06:04.180Z,16.90
2018-07-20T00:08:32.352Z,16.90
2018-07-20T00:11:00.356Z,16.90
2018-07-20T00:15:56.247Z,16.80
2018-07-20T00:18:24.644Z,16.70
2018-07-20T00:20:52.668Z,16.70
2018-07-20T00:23:20.707Z,16.60
2018-07-20T00:25:48.708Z,16.60
2018-07-20T00:28:16.717Z,16.70
2018-07-20T00:30:45.859Z,16.70
2018-07-20T00:33:13.876Z,16.60
2018-07-20T00:35:41.923Z,16.50
2018-07-20T00:38:09.937Z,16.60
2018-07-20T00:40:37.939Z,16.60
2018-07-20T00:43:05.974Z,16.60
2018-07-20T00:45:34.033Z,16.50
2018-07-20T00:48:02.056Z,16.50
2018-07-20T00:50:30.080Z,16.40
2018-07-20T00:52:58.088Z,16.40
2018-07-20T00:55:26.139Z,16.40
2018-07-20T00:57:54.491Z,16.40
2018-07-20T01:00:22.501Z,16.30
2018-07-20T01:02:50.552Z,16.30
2018-07-20T01:05:18.604Z,16.30
2018-07-20T01:07:46.628Z,16.30
2018-07-20T01:10:14.667Z,16.40
2018-07-20T01:12:42.688Z,16.30
2018-07-20T01:15:10.728Z,16.30
2018-07-20T01:17:38.836Z,16.30
2018-07-20T01:20:07.434Z,16.30
2018-07-20T01:22:35.516Z,16.30
2018-07-20T01:25:03.581Z,16.40
2018-07-20T01:27:31.620Z,16.40
2018-07-20T01:29:59.664Z,16.40
2018-07-20T01:32:27.735Z,16.30
2018-07-20T01:34:55.772Z,16.20
2018-07-20T01:37:23.801Z,16.10
2018-07-20T01:39:51.875Z,16.00
2018-07-20T01:42:19.912Z,16.00
2018-07-20T01:44:47.951Z,16.10
2018-07-20T01:47:16.008Z,16.00
2018-07-20T01:49:44.044Z,16.00
2018-07-20T01:52:12.084Z,16.00
2018-07-20T01:54:40.146Z,16.10
2018-07-20T01:57:08.198Z,16.00
2018-07-20T01:59:36.255Z,16.00
2018-07-20T02:02:04.292Z,16.00
2018-07-20T02:04:32.300Z,16.00
2018-07-20T02:07:00.325Z,16.00
2018-07-20T02:09:28.356Z,16.00
2018-07-20T02:14:24.212Z,16.00
2018-07-20T02:16:52.237Z,16.00
2018-07-20T02:19:20.273Z,16.00
2018-07-20T02:21:48.308Z,16.00
2018-07-20T02:24:16.360Z,16.00
2018-07-20T02:26:44.612Z,16.00
2018-07-20T02:29:12.731Z,15.90
2018-07-20T02:31:40.747Z,15.90
2018-07-20T02:34:09.060Z,15.80
2018-07-20T02:36:37.140Z,15.70
2018-07-20T02:39:08.778Z,15.70
2018-07-20T02:41:36.796Z,15.70
2018-07-20T02:44:04.848Z,15.70
2018-07-20T02:46:32.860Z,15.70
2018-07-20T02:49:00.874Z,15.70
2018-07-20T02:51:28.899Z,15.70
2018-07-20T02:53:56.916Z,15.70
2018-07-20T02:56:24.961Z,15.60
2018-07-20T02:58:52.984Z,15.60
2018-07-20T03:01:21.023Z,15.50
2018-07-20T03:03:49.048Z,15.50
2018-07-20T03:06:17.096Z,15.50
2018-07-20T03:08:45.121Z,15.50
2018-07-20T03:11:13.144Z,15.50
2018-07-20T03:13:41.173Z,15.30
2018-07-20T03:16:09.231Z,15.20
2018-07-20T03:21:05.174Z,15.30
2018-07-20T03:23:33.427Z,15.30
2018-07-20T03:26:01.492Z,15.30
2018-07-20T03:28:29.516Z,15.30
2018-07-20T03:30:57.567Z,15.30
2018-07-20T03:33:25.581Z,15.40
2018-07-20T03:35:53.624Z,15.30
2018-07-20T03:38:21.664Z,15.30
2018-07-20T03:40:49.719Z,15.30
2018-07-20T03:43:17.749Z,15.20
2018-07-20T03:45:45.799Z,15.30
2018-07-20T03:48:13.841Z,15.30
2018-07-20T03:50:41.916Z,15.30
2018-07-20T03:53:09.933Z,15.30
2018-07-20T03:55:37.980Z,15.20
2018-07-20T03:58:06.072Z,15.20
2018-07-20T04:00:34.099Z,15.20
2018-07-20T04:05:29.960Z,15.20
2018-07-20T04:07:58.008Z,15.20
2018-07-20T04:10:26.036Z,15.20
2018-07-20T04:12:54.115Z,15.20
2018-07-20T04:15:22.201Z,15.30
2018-07-20T04:17:50.256Z,15.30
2018-07-20T04:20:18.308Z,15.40
2018-07-20T04:22:46.352Z,15.50
2018-07-20T04:25:14.412Z,15.40
2018-07-20T04:27:42.447Z,15.50
2018-07-20T04:30:12.864Z,15.40
2018-07-20T04:32:40.932Z,15.50
2018-07-20T04:35:09.603Z,15.60
2018-07-20T04:37:37.644Z,15.60
2018-07-20T04:40:05.845Z,15.70
2018-07-20T04:42:34.101Z,15.80
2018-07-20T04:45:02.145Z,15.80
2018-07-20T04:49:58.059Z,15.90
2018-07-20T04:52:26.100Z,15.90
2018-07-20T04:54:54.196Z,16.00
2018-07-20T04:57:22.355Z,16.00
2018-07-20T04:59:50.399Z,16.10
2018-07-20T05:02:18.603Z,16.10
2018-07-20T05:04:46.657Z,16.20
2018-07-20T05:07:14.731Z,16.20
2018-07-20T05:09:42.740Z,16.20
2018-07-20T05:14:38.804Z,16.40
2018-07-20T05:17:06.855Z,16.50
2018-07-20T05:19:34.884Z,16.50
2018-07-20T05:22:02.917Z,16.40
2018-07-20T05:24:30.928Z,16.40
2018-07-20T05:26:58.981Z,16.40
2018-07-20T05:29:27.011Z,16.50
2018-07-20T05:34:22.887Z,16.50
2018-07-20T05:36:50.900Z,16.70
2018-07-20T05:39:18.928Z,16.80
2018-07-20T05:41:46.936Z,16.80
2018-07-20T05:44:14.971Z,16.90
2018-07-20T05:46:43.008Z,16.90
2018-07-20T05:49:11.035Z,16.90
2018-07-20T05:51:39.085Z,17.00
2018-07-20T05:54:07.084Z,17.20
2018-07-20T05:56:35.135Z,17.30
2018-07-20T05:59:03.176Z,17.40
2018-07-20T06:01:31.216Z,17.40
2018-07-20T06:03:59.285Z,17.20
2018-07-20T06:06:27.324Z,17.30
2018-07-20T06:08:55.564Z,17.40
2018-07-20T06:11:23.612Z,17.40
2018-07-20T06:13:51.938Z,17.30
2018-07-20T06:16:19.972Z,17.40
2018-07-20T06:18:48.045Z,17.40
2018-07-20T06:21:16.084Z,17.40
2018-07-20T06:23:44.140Z,17.50
2018-07-20T06:26:12.133Z,17.60
2018-07-20T06:28:40.153Z,17.80
2018-07-20T06:31:08.193Z,17.80
2018-07-20T06:33:36.251Z,17.90
2018-07-20T06:36:04.261Z,18.00
2018-07-20T06:38:32.288Z,18.10
2018-07-20T06:41:00.312Z,18.20
2018-07-20T06:43:28.375Z,18.40
2018-07-20T06:45:56.443Z,18.50
2018-07-20T06:48:24.512Z,18.60
2018-07-20T06:50:52.539Z,18.80
2018-07-20T06:53:20.573Z,18.90
2018-07-20T06:55:48.648Z,19.00
2018-07-20T06:58:16.652Z,21.50
2018-07-20T07:00:44.693Z,19.20
2018-07-20T07:05:40.575Z,19.40
2018-07-20T07:08:08.644Z,19.60
2018-07-20T07:10:36.676Z,19.80
2018-07-20T07:13:04.796Z,19.80
2018-07-20T07:15:32.829Z,19.60
2018-07-20T07:18:00.878Z,19.70
2018-07-20T07:20:28.951Z,19.70
2018-07-20T07:22:56.969Z,19.90
2018-07-20T07:25:25.016Z,19.90
2018-07-20T07:27:53.052Z,19.90
2018-07-20T07:30:21.092Z,19.90
2018-07-20T07:32:49.192Z,20.00
2018-07-20T07:35:17.247Z,20.10
2018-07-20T07:37:45.269Z,20.30
2018-07-20T07:40:13.292Z,20.40
2018-07-20T07:42:41.328Z,20.30
2018-07-20T07:45:09.377Z,20.30
2018-07-20T07:47:37.427Z,20.40
2018-07-20T07:52:33.256Z,20.70
2018-07-20T07:55:01.273Z,20.70
2018-07-20T07:57:29.300Z,20.80
2018-07-20T08:02:25.143Z,21.00
2018-07-20T08:04:53.201Z,21.20
2018-07-20T08:07:21.256Z,21.30
2018-07-20T08:09:49.328Z,21.40
2018-07-20T08:12:17.388Z,21.60
2018-07-20T08:14:45.435Z,21.80
2018-07-20T08:17:13.472Z,21.90
2018-07-20T08:19:41.540Z,22.00
2018-07-20T08:22:09.581Z,22.10
2018-07-20T08:24:37.611Z,22.20
2018-07-20T08:27:05.650Z,22.20
2018-07-20T08:29:33.702Z,22.10
2018-07-20T08:32:01.749Z,22.10
2018-07-20T08:34:29.819Z,22.20
2018-07-20T08:36:57.855Z,22.20
2018-07-20T08:39:25.884Z,22.10
2018-07-20T08:41:53.917Z,22.20
2018-07-20T08:44:21.960Z,22.40
2018-07-20T08:46:49.971Z,22.70
2018-07-20T08:49:17.999Z,22.60
2018-07-20T08:51:46.044Z,22.60
2018-07-20T08:56:41.993Z,22.70
2018-07-20T08:59:10.030Z,22.90
2018-07-20T09:01:38.075Z,22.80
2018-07-20T09:04:06.092Z,22.80
2018-07-20T09:06:34.124Z,22.70
2018-07-20T09:09:02.163Z,22.60
2018-07-20T09:11:30.201Z,22.50
2018-07-20T09:18:53.921Z,22.50
2018-07-20T09:21:21.955Z,22.70
2018-07-20T09:26:17.820Z,22.70
2018-07-20T09:28:45.948Z,22.60
2018-07-20T09:31:13.979Z,22.50
2018-07-20T09:33:42.040Z,22.40
2018-07-20T09:36:10.069Z,22.40
2018-07-20T09:38:38.104Z,22.40
2018-07-20T09:41:06.135Z,22.40
2018-07-20T09:43:34.229Z,22.40
2018-07-20T09:46:02.252Z,22.30
2018-07-20T09:48:30.287Z,22.40
2018-07-20T09:50:58.319Z,22.50
2018-07-20T09:53:26.356Z,22.50
2018-07-20T09:55:54.399Z,22.50
2018-07-20T09:58:22.459Z,22.50
2018-07-20T10:00:51.481Z,22.70
2018-07-20T10:03:20.496Z,22.70
2018-07-20T10:05:48.944Z,22.70
2018-07-20T10:08:18.051Z,22.80
2018-07-20T10:10:46.308Z,22.90
2018-07-20T10:13:14.352Z,23.00
2018-07-20T10:15:42.401Z,23.10
2018-07-20T10:18:10.452Z,23.10
2018-07-20T10:20:38.496Z,23.00
2018-07-20T10:23:06.532Z,23.10
2018-07-20T10:25:34.597Z,23.20
2018-07-20T10:28:02.912Z,23.20
2018-07-20T10:30:31.381Z,23.40
2018-07-20T10:32:59.568Z,23.50
2018-07-20T10:35:27.699Z,23.50
2018-07-20T10:37:55.760Z,23.60
2018-07-20T10:40:26.856Z,23.60
2018-07-20T10:42:56.336Z,23.70
2018-07-20T10:45:24.612Z,23.80
2018-07-20T10:47:52.660Z,23.90
2018-07-20T10:50:20.724Z,24.00
2018-07-20T10:52:48.748Z,24.10
2018-07-20T10:55:17.131Z,24.20
2018-07-20T10:57:45.284Z,24.20
2018-07-20T11:00:13.352Z,24.10
2018-07-20T11:02:41.386Z,24.10
2018-07-20T11:05:09.472Z,24.20
2018-07-20T11:07:37.537Z,24.20
2018-07-20T11:10:06.019Z,24.20
2018-07-20T11:12:34.247Z,24.30
2018-07-20T11:15:02.285Z,24.30
2018-07-20T11:17:30.313Z,24.40
2018-07-20T11:19:58.352Z,24.40
2018-07-20T11:22:26.379Z,24.40
2018-07-20T11:24:54.431Z,24.30
2018-07-20T11:27:22.452Z,24.00
2018-07-20T11:29:50.492Z,23.70
2018-07-20T11:32:18.546Z,23.70
2018-07-20T11:34:46.649Z,23.90
2018-07-20T11:37:14.614Z,24.10
2018-07-20T11:39:42.657Z,24.20
2018-07-20T11:42:10.854Z,24.20
2018-07-20T11:44:38.884Z,24.30
2018-07-20T11:47:06.912Z,24.50
2018-07-20T11:49:34.951Z,24.70
2018-07-20T11:52:02.976Z,24.80
2018-07-20T11:54:31.043Z,24.80
2018-07-20T11:56:59.156Z,24.80
2018-07-20T11:59:27.183Z,24.90
2018-07-20T12:01:55.276Z,25.00
2018-07-20T12:04:23.271Z,25.00
2018-07-20T12:06:51.315Z,24.90
2018-07-20T12:09:19.348Z,25.00
2018-07-20T12:11:47.412Z,25.00
2018-07-20T12:14:15.445Z,24.90
2018-07-20T12:16:43.492Z,24.90
2018-07-20T12:19:11.555Z,24.90
2018-07-20T12:21:39.597Z,25.00
2018-07-20T12:24:07.632Z,25.10
2018-07-20T12:26:35.678Z,25.10
2018-07-20T12:29:03.744Z,25.30
2018-07-20T12:31:31.784Z,25.20
2018-07-20T12:33:59.804Z,25.30
2018-07-20T12:36:27.851Z,25.50
2018-07-20T12:41:23.720Z,25.80
2018-07-20T12:43:51.759Z,25.80
2018-07-20T12:46:19.823Z,25.80
2018-07-20T12:48:47.840Z,26.00
2018-07-20T12:51:15.880Z,26.00
2018-07-20T12:53:43.958Z,26.20
2018-07-20T12:56:12.012Z,26.30
2018-07-20T12:58:40.151Z,26.30
2018-07-20T13:01:08.139Z,26.30
2018-07-20T13:03:36.176Z,26.20
2018-07-20T13:06:04.240Z,26.30
2018-07-20T13:08:32.267Z,26.30
2018-07-20T13:11:00.356Z,26.40
2018-07-20T13:13:28.368Z,26.30
2018-07-20T13:15:56.411Z,26.40
2018-07-20T13:18:24.437Z,26.60
2018-07-20T13:25:48.175Z,26.60
2018-07-20T13:28:16.213Z,26.50
2018-07-20T13:30:44.767Z,26.60
2018-07-20T13:33:12.832Z,26.60
2018-07-20T13:35:40.857Z,26.60
2018-07-20T13:38:08.918Z,26.70
2018-07-20T13:40:36.963Z,26.80
2018-07-20T13:43:05.000Z,26.80
2018-07-20T13:45:33.024Z,26.90
2018-07-20T13:48:01.040Z,27.00
2018-07-20T13:50:29.064Z,27.00
2018-07-20T13:52:57.170Z,27.00
2018-07-20T13:55:25.184Z,27.10
2018-07-20T13:57:53.416Z,27.20
2018-07-20T14:00:21.433Z,27.10
2018-07-20T14:02:49.468Z,27.20
2018-07-20T14:05:17.533Z,27.30
2018-07-20T14:07:45.591Z,27.40
2018-07-20T14:10:13.663Z,27.50
2018-07-20T14:12:41.699Z,27.30
2018-07-20T14:15:09.748Z,27.30
2018-07-20T14:20:05.670Z,27.50
2018-07-20T14:22:34.429Z,27.50
2018-07-20T14:25:02.452Z,27.60
2018-07-20T14:27:30.488Z,27.80
2018-07-20T14:29:58.536Z,27.90
2018-07-20T14:32:26.564Z,27.90
2018-07-20T14:34:54.597Z,27.70
2018-07-20T14:37:22.628Z,27.60
2018-07-20T14:39:50.714Z,27.60
2018-07-20T14:42:18.794Z,27.70
2018-07-20T14:44:46.832Z,28.00
2018-07-20T14:47:14.869Z,28.40
2018-07-20T14:49:42.899Z,28.60
2018-07-20T14:52:10.948Z,28.50
2018-07-20T14:54:39.011Z,28.50
2018-07-20T14:57:07.045Z,28.90
2018-07-20T14:59:35.117Z,29.10
2018-07-20T15:02:03.167Z,29.00
2018-07-20T15:04:31.200Z,28.80
2018-07-20T15:06:59.281Z,28.80
2018-07-20T15:09:27.313Z,28.90
2018-07-20T15:16:51.132Z,29.20
2018-07-20T15:19:19.151Z,29.70
2018-07-20T15:21:47.227Z,30.00
2018-07-20T15:24:15.261Z,30.10
2018-07-20T15:26:43.280Z,30.20
2018-07-20T15:29:11.304Z,30.50
2018-07-20T15:31:39.336Z,31.00
2018-07-20T15:36:35.178Z,31.90
2018-07-20T15:39:03.292Z,32.30
2018-07-20T15:41:31.336Z,32.90
2018-07-20T15:43:59.389Z,33.90
2018-07-20T15:48:55.254Z,35.20
2018-07-20T15:51:31.578Z,35.10
2018-07-20T15:53:51.367Z,35.00
2018-07-20T15:58:47.196Z,34.60
2018-07-20T16:01:15.237Z,33.90
2018-07-20T16:03:43.258Z,33.50
2018-07-20T16:06:11.330Z,33.40
2018-07-20T16:08:39.401Z,33.30
2018-07-20T16:11:07.426Z,33.70
2018-07-20T16:13:35.452Z,34.20
2018-07-20T16:16:03.508Z,35.00
2018-07-20T16:18:31.524Z,36.30
2018-07-20T16:20:59.560Z,36.50
2018-07-20T16:23:27.593Z,37.20
2018-07-20T16:25:55.677Z,37.30
2018-07-20T16:28:23.644Z,37.70
2018-07-20T16:30:51.673Z,37.20
2018-07-20T16:33:19.738Z,36.40
2018-07-20T16:35:47.814Z,35.50
2018-07-20T16:38:15.796Z,34.80
2018-07-20T16:40:43.812Z,34.00
2018-07-20T16:43:11.828Z,37.70
2018-07-20T16:45:39.889Z,32.50
2018-07-20T16:48:07.924Z,32.00
2018-07-20T16:50:35.955Z,31.70
2018-07-20T16:55:32.040Z,31.00
2018-07-20T16:58:01.355Z,31.00
2018-07-20T17:00:30.319Z,31.30
2018-07-20T17:02:59.315Z,31.80
2018-07-20T17:05:28.578Z,32.40
2018-07-20T17:07:57.504Z,32.90
2018-07-20T17:10:26.544Z,33.10
2018-07-20T17:12:55.594Z,33.70
2018-07-20T17:15:24.482Z,34.40
2018-07-20T17:17:53.197Z,35.00
2018-07-20T17:20:22.144Z,35.80
2018-07-20T17:22:51.806Z,36.50
2018-07-20T17:27:47.749Z,36.80
2018-07-20T17:30:15.760Z,36.70
2018-07-20T17:35:18.288Z,36.20
2018-07-20T17:37:46.320Z,36.10
2018-07-20T17:40:14.349Z,35.70
2018-07-20T17:42:42.475Z,35.30
2018-07-20T17:45:10.523Z,34.90
2018-07-20T17:47:38.521Z,34.50
2018-07-20T17:50:06.548Z,34.40
2018-07-20T17:52:34.642Z,34.30
2018-07-20T17:55:02.668Z,34.40
2018-07-20T17:57:30.679Z,34.20
2018-07-20T17:59:58.731Z,34.00
2018-07-20T18:04:55.643Z,32.50
2018-07-20T18:07:23.672Z,31.70
2018-07-20T18:09:51.718Z,31.30
2018-07-20T18:12:19.745Z,30.90
2018-07-20T18:14:47.765Z,30.40
2018-07-20T18:19:43.680Z,29.60
2018-07-20T18:22:11.701Z,29.20
2018-07-20T18:24:39.747Z,29.00
2018-07-20T18:27:07.801Z,28.70
2018-07-20T18:29:35.776Z,28.40
2018-07-20T18:32:03.815Z,28.20
2018-07-20T18:34:31.856Z,28.00
2018-07-20T18:36:59.919Z,27.90
2018-07-20T18:39:27.952Z,27.80
2018-07-20T18:41:55.971Z,27.60
2018-07-20T18:44:24.020Z,27.40
2018-07-20T18:46:52.060Z,27.30
2018-07-20T18:49:20.104Z,27.10
2018-07-20T18:51:48.201Z,27.00
2018-07-20T18:54:16.266Z,26.90
2018-07-20T18:56:44.283Z,26.80
2018-07-20T18:59:12.316Z,26.70
2018-07-20T19:01:40.352Z,26.60
2018-07-20T19:04:08.388Z,26.50
2018-07-20T19:06:36.415Z,26.20
2018-07-20T19:09:07.412Z,26.10
2018-07-20T19:11:35.440Z,25.90
2018-07-20T19:14:03.456Z,25.80
2018-07-20T19:16:31.532Z,25.80
2018-07-20T19:18:59.591Z,25.40
2018-07-20T19:21:28.445Z,25.10
2018-07-20T19:23:56.479Z,25.00
2018-07-20T19:26:24.528Z,24.90
2018-07-20T19:28:52.565Z,24.70
2018-07-20T19:31:20.627Z,24.60
2018-07-20T19:33:48.658Z,24.40
2018-07-20T19:36:16.704Z,24.40
2018-07-20T19:38:44.740Z,24.20
2018-07-20T19:41:12.768Z,24.10
2018-07-20T19:43:40.796Z,23.90
2018-07-20T19:46:08.819Z,23.90
2018-07-20T19:48:36.849Z,23.80
2018-07-20T19:51:04.904Z,23.70
2018-07-20T19:53:32.912Z,23.60
2018-07-20T19:56:00.932Z,23.50
2018-07-20T19:58:28.960Z,23.50
2018-07-20T20:00:56.998Z,23.40
2018-07-20T20:03:25.068Z,23.30
2018-07-20T20:05:53.108Z,23.20
2018-07-20T20:08:21.155Z,23.20
2018-07-20T20:10:49.185Z,23.10
2018-07-20T20:13:17.353Z,23.00
2018-07-20T20:15:45.379Z,22.90
2018-07-20T20:18:13.435Z,22.90
2018-07-20T20:20:41.491Z,22.80
2018-07-20T20:23:09.553Z,22.80
2018-07-20T20:25:37.599Z,22.80
2018-07-20T20:28:05.663Z,22.70
2018-07-20T20:30:33.724Z,22.60
2018-07-20T20:33:01.788Z,22.60
2018-07-20T20:35:29.848Z,22.50
2018-07-20T20:40:25.732Z,22.40
2018-07-20T20:42:53.947Z,22.30
2018-07-20T20:45:21.984Z,22.30
2018-07-20T20:47:50.050Z,22.20
2018-07-20T20:50:18.049Z,22.20
2018-07-20T20:52:46.100Z,22.10
2018-07-20T20:55:14.289Z,22.00
2018-07-20T20:57:42.345Z,22.00
2018-07-20T21:00:10.540Z,22.00
2018-07-20T21:02:38.595Z,21.90
2018-07-20T21:05:06.773Z,21.90
2018-07-20T21:07:34.825Z,21.80
2018-07-20T21:10:03.156Z,21.80
2018-07-20T21:14:59.056Z,21.70
2018-07-20T21:17:27.128Z,21.60
2018-07-20T21:19:55.189Z,21.60
2018-07-20T21:22:23.247Z,21.60
2018-07-20T21:24:51.277Z,21.50
2018-07-20T21:27:19.312Z,21.50
2018-07-20T21:29:47.403Z,21.40
2018-07-20T21:34:43.317Z,21.40
2018-07-20T21:37:11.391Z,21.40
2018-07-20T21:39:39.503Z,21.30
2018-07-20T21:42:07.645Z,21.30
2018-07-20T21:44:35.684Z,21.30
2018-07-20T21:47:03.720Z,21.30
2018-07-20T21:49:31.751Z,21.30
2018-07-20T21:52:00.012Z,21.20
2018-07-20T21:54:28.154Z,21.20
2018-07-20T21:56:56.171Z,21.20
2018-07-20T21:59:24.209Z,21.20
2018-07-20T22:01:52.237Z,21.10
2018-07-20T22:04:20.264Z,21.10
2018-07-20T22:06:48.297Z,21.10
2018-07-20T22:09:16.332Z,21.10
2018-07-20T22:14:12.274Z,21.10
2018-07-20T22:19:08.153Z,21.00
2018-07-20T22:21:36.186Z,21.00
2018-07-20T22:26:32.077Z,20.90
2018-07-20T22:29:00.113Z,20.90
2018-07-20T22:31:28.180Z,20.90
2018-07-20T22:33:56.204Z,20.90
2018-07-20T22:36:24.232Z,20.80
2018-07-20T22:38:52.256Z,20.80
2018-07-20T22:43:48.151Z,20.70
2018-07-20T22:46:16.227Z,20.70
2018-07-20T22:48:44.280Z,20.60
2018-07-20T22:51:12.307Z,20.60
2018-07-20T22:53:40.340Z,20.50
2018-07-20T22:56:08.513Z,20.50
2018-07-20T22:58:36.539Z,20.40
2018-07-20T23:01:04.576Z,20.40
2018-07-20T23:03:32.620Z,20.30
2018-07-20T23:06:00.656Z,20.20
2018-07-20T23:08:28.684Z,20.20
2018-07-20T23:10:56.716Z,20.10
2018-07-20T23:13:24.753Z,20.10
2018-07-20T23:15:52.762Z,20.00
2018-07-20T23:18:20.789Z,20.00
2018-07-20T23:20:48.812Z,19.90
2018-07-20T23:23:16.909Z,19.90
2018-07-20T23:25:44.924Z,19.80
2018-07-20T23:28:12.996Z,19.80
2018-07-20T23:30:41.036Z,19.70
2018-07-20T23:35:36.905Z,19.70
2018-07-20T23:38:05.099Z,19.70
2018-07-20T23:40:33.151Z,19.70
2018-07-20T23:43:01.196Z,19.60
2018-07-20T23:45:29.212Z,19.60
2018-07-20T23:47:57.391Z,19.50
2018-07-20T23:50:25.400Z,19.50
2018-07-20T23:52:53.440Z,19.50
2018-07-20T23:55:21.480Z,19.50
2018-07-20T23:57:49.515Z,19.40
